CheckWX is a tool to help pilots better visualize weather data.  It is not intended as a substitute for an official pre-flight weather briefing.

08:37:13 UTC

EEKE METAR
Kuressaare Airport
Kuressaare, Estonia
Current

47 mins ago

EEKE 170750Z 36010KT 330V030 9999 SCT018 18/15 Q1008
Observed
Jul-17 @ 07:50 UTC
Wind
  • 360° at 10 KTS
Visibility
10,000+ meters
Flight Rules
VFR
Cloud Levels
  • Scattered at 1,800' AGL
Temperature
18°C / 64°F
Dewpoint
15°C / 59°F
Humidity
83%
Altimeter
29.76" Hg
Pressure
1007.92 hPa
Previous

2 hours ago

EEKE 170650Z 02011KT 9999 FEW011 SCT014 18/14 Q1007
Observed
Jul-17 @ 06:50 UTC
Wind
  • 020° at 11 KTS
Visibility
10,000+ meters
Flight Rules
VFR
Cloud Levels
  • Few at 1,100' AGL
  • Scattered at 1,400' AGL
Temperature
18°C / 64°F
Dewpoint
14°C / 57°F
Humidity
78%
Altimeter
29.73" Hg
Pressure
1006.92 hPa
Previous

3 hours ago

EEKE 170550Z 01012KT 9999 BKN008 16/14 Q1007
Observed
Jul-17 @ 05:50 UTC
Wind
  • 010° at 12 KTS
Visibility
10,000+ meters
Flight Rules
IFR
Cloud Levels
  • Broken at 800' AGL
Temperature
16°C / 61°F
Dewpoint
14°C / 57°F
Humidity
88%
Altimeter
29.73" Hg
Pressure
1006.92 hPa